createdAt,value
2022-11-16T00:02:06.992Z,7.32
2022-11-16T00:04:33.629Z,7.32
2022-11-16T00:07:02.853Z,7.31
2022-11-16T00:09:31.932Z,7.32
2022-11-16T00:12:05.569Z,7.32
2022-11-16T00:14:35.137Z,7.32
2022-11-16T00:17:02.407Z,7.33
2022-11-16T00:19:29.155Z,7.32
2022-11-16T00:21:55.941Z,7.33
2022-11-16T00:24:23.681Z,7.32
2022-11-16T00:26:50.927Z,7.34
2022-11-16T00:29:20.681Z,7.32
2022-11-16T00:31:48.230Z,7.34
2022-11-16T00:34:14.960Z,7.33
2022-11-16T00:36:41.706Z,7.31
2022-11-16T00:39:11.755Z,7.30
2022-11-16T00:41:38.273Z,7.32
2022-11-16T00:44:05.021Z,7.33
2022-11-16T00:46:31.551Z,7.30
2022-11-16T00:48:58.053Z,7.32
2022-11-16T00:51:24.522Z,7.32
2022-11-16T00:53:51.025Z,7.33
2022-11-16T00:56:17.534Z,7.33
2022-11-16T00:58:44.064Z,7.33
2022-11-16T01:01:11.717Z,7.34
2022-11-16T01:03:38.980Z,7.32
2022-11-16T01:06:08.040Z,7.33
2022-11-16T01:08:36.717Z,7.32
2022-11-16T01:11:23.117Z,7.33
2022-11-16T01:13:49.759Z,7.33
2022-11-16T01:16:17.063Z,7.33
2022-11-16T01:18:47.297Z,7.32
2022-11-16T01:21:13.857Z,7.32
2022-11-16T01:23:40.384Z,7.34
2022-11-16T01:26:07.097Z,7.32
2022-11-16T01:28:33.890Z,7.34
2022-11-16T01:31:00.829Z,7.33
2022-11-16T01:33:27.348Z,7.35
2022-11-16T01:35:53.854Z,7.35
2022-11-16T01:38:20.411Z,7.35
2022-11-16T01:40:46.949Z,7.35
2022-11-16T01:43:24.277Z,7.36
2022-11-16T01:45:51.008Z,7.36
2022-11-16T01:48:22.272Z,7.38
2022-11-16T01:50:49.973Z,7.38
2022-11-16T01:53:16.795Z,7.40
2022-11-16T01:55:45.614Z,7.40
2022-11-16T01:58:20.166Z,7.38
2022-11-16T02:00:46.820Z,7.38
2022-11-16T02:03:13.428Z,7.36
2022-11-16T02:06:03.521Z,7.36
2022-11-16T02:09:07.163Z,7.38
2022-11-16T02:11:47.826Z,7.39
2022-11-16T02:14:32.289Z,7.42
2022-11-16T02:17:20.493Z,7.41
2022-11-16T02:20:32.005Z,7.45
2022-11-16T02:23:16.526Z,7.43
2022-11-16T02:25:55.232Z,7.44
2022-11-16T02:28:27.681Z,7.42
2022-11-16T02:30:58.854Z,7.42
2022-11-16T02:33:30.480Z,7.42
2022-11-16T02:36:01.007Z,7.43
2022-11-16T02:38:32.354Z,7.44
2022-11-16T02:41:08.093Z,7.46
2022-11-16T02:43:40.422Z,7.45
2022-11-16T02:46:12.981Z,7.46
2022-11-16T02:48:46.186Z,7.46
2022-11-16T02:51:14.102Z,7.48
2022-11-16T02:53:52.470Z,7.49
2022-11-16T02:56:19.653Z,7.48
2022-11-16T02:58:47.434Z,7.50
2022-11-16T03:01:22.831Z,7.49
2022-11-16T03:03:54.987Z,7.49
2022-11-16T03:06:34.597Z,7.50
2022-11-16T03:09:07.229Z,7.50
2022-11-16T03:11:55.141Z,7.53
2022-11-16T03:14:26.243Z,7.54
2022-11-16T03:17:01.469Z,7.52
2022-11-16T03:19:47.870Z,7.52
2022-11-16T03:22:17.187Z,7.53
2022-11-16T03:24:44.244Z,7.54
2022-11-16T03:27:21.981Z,7.54
2022-11-16T03:30:08.546Z,7.50
2022-11-16T03:32:51.290Z,7.52
2022-11-16T03:35:30.591Z,7.53
2022-11-16T03:37:59.855Z,7.51
2022-11-16T03:40:30.391Z,7.55
2022-11-16T03:42:59.543Z,7.54
2022-11-16T03:45:26.713Z,7.54
2022-11-16T03:47:53.219Z,7.53
2022-11-16T03:50:19.764Z,7.52
2022-11-16T03:52:46.290Z,7.51
2022-11-16T03:55:12.877Z,7.51
2022-11-16T03:57:39.508Z,7.52
2022-11-16T04:00:07.637Z,7.52
2022-11-16T04:02:34.155Z,7.51
2022-11-16T04:05:19.628Z,7.52
2022-11-16T04:08:06.771Z,7.52
2022-11-16T04:10:51.633Z,7.52
2022-11-16T04:13:43.605Z,7.53
2022-11-16T04:16:29.465Z,7.54
2022-11-16T04:19:14.757Z,7.52
2022-11-16T04:22:05.077Z,7.54
2022-11-16T04:24:37.365Z,7.56
2022-11-16T04:27:26.505Z,7.52
2022-11-16T04:29:54.756Z,7.51
2022-11-16T04:32:40.214Z,7.54
2022-11-16T04:35:25.561Z,7.55
2022-11-16T04:37:53.366Z,7.55
2022-11-16T04:40:24.665Z,7.54
2022-11-16T04:42:56.073Z,7.56
2022-11-16T04:45:41.946Z,7.54
2022-11-16T04:48:09.725Z,7.56
2022-11-16T04:50:36.849Z,7.55
2022-11-16T04:53:04.310Z,7.54
2022-11-16T04:55:30.959Z,7.54
2022-11-16T04:57:57.469Z,7.52
2022-11-16T05:00:24.317Z,7.52
2022-11-16T05:02:50.806Z,7.52
2022-11-16T05:05:18.000Z,7.50
2022-11-16T05:07:44.893Z,7.52
2022-11-16T05:10:13.225Z,7.54
2022-11-16T05:12:40.158Z,7.55
2022-11-16T05:15:08.125Z,7.54
2022-11-16T05:17:34.925Z,7.54
2022-11-16T05:20:20.303Z,7.55
2022-11-16T05:22:56.368Z,7.51
2022-11-16T05:25:22.978Z,7.52
2022-11-16T05:27:49.568Z,7.52
2022-11-16T05:30:16.390Z,7.50
2022-11-16T05:32:42.888Z,7.50
2022-11-16T05:35:09.485Z,7.49
2022-11-16T05:37:36.009Z,7.50
2022-11-16T05:40:02.552Z,7.50
2022-11-16T05:42:29.048Z,7.51
2022-11-16T05:44:55.606Z,7.51
2022-11-16T05:47:22.221Z,7.51
2022-11-16T05:49:48.787Z,7.56
2022-11-16T05:52:15.278Z,7.53
2022-11-16T05:54:41.794Z,7.52
2022-11-16T05:57:08.292Z,7.53
2022-11-16T05:59:34.947Z,7.54
2022-11-16T06:02:01.560Z,7.54
2022-11-16T06:04:28.109Z,7.52
2022-11-16T06:06:54.608Z,7.51
2022-11-16T06:09:21.205Z,7.52
2022-11-16T06:11:47.694Z,7.52
2022-11-16T06:14:14.556Z,7.54
2022-11-16T06:16:41.027Z,7.54
2022-11-16T06:19:07.509Z,7.52
2022-11-16T06:21:34.164Z,7.54
2022-11-16T06:24:02.635Z,7.54
2022-11-16T06:26:29.216Z,7.53
2022-11-16T06:28:55.702Z,7.55
2022-11-16T06:31:22.476Z,7.53
2022-11-16T06:33:48.979Z,7.55
2022-11-16T06:36:15.493Z,7.54
2022-11-16T06:38:41.967Z,7.54
2022-11-16T06:41:08.466Z,7.52
2022-11-16T06:43:35.015Z,7.50
2022-11-16T06:46:01.565Z,7.52
2022-11-16T06:48:28.101Z,7.53
2022-11-16T06:50:54.685Z,7.56
2022-11-16T06:53:26.064Z,7.57
2022-11-16T06:55:55.648Z,7.58
2022-11-16T06:58:42.951Z,7.57
2022-11-16T07:01:11.476Z,7.55
2022-11-16T07:03:38.739Z,7.55
2022-11-16T07:06:10.312Z,7.57
2022-11-16T07:08:37.108Z,7.56
2022-11-16T07:11:08.695Z,7.58
2022-11-16T07:13:37.148Z,7.58
2022-11-16T07:16:08.466Z,7.58
2022-11-16T07:18:40.340Z,7.62
2022-11-16T07:21:12.313Z,7.64
2022-11-16T07:23:39.189Z,7.66
2022-11-16T07:26:07.807Z,7.68
2022-11-16T07:28:34.681Z,7.71
2022-11-16T07:31:06.993Z,7.74
2022-11-16T07:33:34.009Z,7.74
2022-11-16T07:36:02.493Z,7.74
2022-11-16T07:38:29.370Z,7.74
2022-11-16T07:41:03.129Z,7.76
2022-11-16T07:43:31.758Z,7.77
2022-11-16T07:48:58.485Z,7.81
2022-11-16T07:51:25.016Z,7.80
2022-11-16T07:53:55.945Z,7.78
2022-11-16T07:56:22.907Z,7.82
2022-11-16T07:58:49.777Z,7.84
2022-11-16T08:01:18.384Z,7.85
2022-11-16T08:03:46.314Z,7.85
2022-11-16T08:06:16.854Z,7.87
2022-11-16T08:08:43.685Z,7.89
2022-11-16T08:11:11.619Z,7.91
2022-11-16T08:13:40.382Z,7.92
2022-11-16T08:16:10.871Z,7.93
2022-11-16T08:18:38.005Z,7.93
2022-11-16T08:21:06.476Z,7.96
2022-11-16T08:23:33.210Z,7.98
2022-11-16T08:26:09.591Z,7.99
2022-11-16T08:28:37.211Z,7.99
2022-11-16T08:31:16.594Z,8.00
2022-11-16T08:33:43.108Z,8.01
2022-11-16T08:36:14.433Z,8.02
2022-11-16T08:38:42.170Z,8.04
2022-11-16T08:41:08.708Z,8.06
2022-11-16T08:43:35.954Z,8.06
2022-11-16T08:46:03.213Z,8.08
2022-11-16T08:48:29.833Z,8.07
2022-11-16T08:51:21.582Z,8.08
2022-11-16T08:53:49.451Z,8.09
2022-11-16T08:56:17.883Z,8.11
2022-11-16T08:58:46.931Z,8.12
2022-11-16T09:01:19.713Z,8.14
2022-11-16T09:03:46.674Z,8.14
2022-11-16T09:06:14.031Z,8.14
2022-11-16T09:08:42.561Z,8.17
2022-11-16T09:11:15.889Z,8.18
2022-11-16T09:13:43.756Z,8.19
2022-11-16T09:16:10.701Z,8.20
2022-11-16T09:18:37.988Z,8.16
2022-11-16T09:21:04.731Z,8.17
2022-11-16T09:23:31.200Z,8.19
2022-11-16T09:26:04.467Z,8.18
2022-11-16T09:28:31.987Z,8.18
2022-11-16T09:31:04.359Z,8.22
2022-11-16T09:33:32.123Z,8.26
2022-11-16T09:36:07.902Z,8.29
2022-11-16T09:42:04.749Z,8.34
2022-11-16T09:45:08.883Z,8.37
2022-11-16T09:48:02.869Z,8.36
2022-11-16T09:50:49.753Z,8.37
2022-11-16T09:53:34.522Z,8.38
2022-11-16T09:56:06.463Z,8.37
2022-11-16T09:58:42.928Z,8.37
2022-11-16T10:01:32.844Z,8.43
2022-11-16T10:04:07.457Z,8.45
2022-11-16T10:06:56.908Z,8.44
2022-11-16T10:09:24.235Z,8.49
2022-11-16T10:12:09.500Z,8.52
2022-11-16T10:15:09.352Z,8.53
2022-11-16T10:17:57.744Z,8.53
2022-11-16T10:20:45.686Z,8.55
2022-11-16T10:23:25.592Z,8.56
2022-11-16T10:26:11.357Z,8.57
2022-11-16T10:29:10.312Z,8.57
2022-11-16T10:31:55.513Z,8.56
2022-11-16T10:34:40.062Z,8.55
2022-11-16T10:37:08.411Z,8.57
2022-11-16T10:39:36.646Z,8.55
2022-11-16T10:42:11.795Z,8.59
2022-11-16T10:44:48.442Z,8.62
2022-11-16T10:47:54.802Z,8.66
2022-11-16T10:50:37.455Z,8.66
2022-11-16T10:53:04.045Z,8.68
2022-11-16T10:55:31.803Z,8.69
2022-11-16T10:58:00.023Z,8.72
2022-11-16T11:00:40.914Z,8.75
2022-11-16T11:03:07.578Z,8.76
2022-11-16T11:05:36.225Z,8.77
2022-11-16T11:08:10.498Z,8.73
2022-11-16T11:10:39.717Z,8.71
2022-11-16T11:13:12.103Z,8.69
2022-11-16T11:15:43.204Z,8.70
2022-11-16T11:18:10.317Z,8.71
2022-11-16T11:20:44.522Z,8.72
2022-11-16T11:23:23.616Z,8.74
2022-11-16T11:25:54.096Z,8.71
2022-11-16T11:28:28.572Z,8.72
2022-11-16T11:31:06.085Z,8.71
2022-11-16T11:33:49.004Z,8.68
2022-11-16T11:36:25.039Z,8.69
2022-11-16T11:38:56.049Z,8.72
2022-11-16T11:41:23.232Z,8.71
2022-11-16T11:44:04.453Z,8.70
2022-11-16T11:47:06.706Z,8.72
2022-11-16T11:49:34.937Z,8.69
2022-11-16T11:52:17.194Z,8.69
2022-11-16T11:54:48.602Z,8.67
2022-11-16T11:57:22.097Z,8.69
2022-11-16T11:59:52.347Z,8.69
2022-11-16T12:02:25.103Z,8.70
2022-11-16T12:05:19.154Z,8.69
2022-11-16T12:07:56.067Z,8.69
2022-11-16T12:10:47.313Z,8.72
2022-11-16T12:13:34.381Z,8.73
2022-11-16T12:16:38.422Z,8.71
2022-11-16T12:19:17.280Z,8.72
2022-11-16T12:22:08.073Z,8.72
2022-11-16T12:25:00.384Z,8.70
2022-11-16T12:27:29.909Z,8.70
2022-11-16T12:30:13.354Z,8.70
2022-11-16T12:33:08.064Z,8.70
2022-11-16T12:35:43.611Z,8.70
2022-11-16T12:38:28.653Z,8.69
2022-11-16T12:41:10.349Z,8.73
2022-11-16T12:44:20.778Z,8.75
2022-11-16T12:47:05.913Z,8.76
2022-11-16T12:50:05.889Z,8.77
2022-11-16T12:52:55.075Z,8.78
2022-11-16T12:56:32.366Z,8.79
2022-11-16T12:59:13.781Z,8.81
2022-11-16T13:02:03.274Z,8.78
2022-11-16T13:04:41.431Z,8.75
2022-11-16T13:07:24.594Z,8.71
2022-11-16T13:10:03.193Z,8.70
2022-11-16T13:12:30.857Z,8.71
2022-11-16T13:15:00.270Z,8.71
2022-11-16T13:17:34.006Z,8.73
2022-11-16T13:20:16.984Z,8.71
2022-11-16T13:22:53.356Z,8.70
2022-11-16T13:25:40.077Z,8.72
2022-11-16T13:28:17.345Z,8.69
2022-11-16T13:31:00.694Z,8.72
2022-11-16T13:33:50.238Z,8.71
2022-11-16T13:36:32.724Z,8.71
2022-11-16T13:38:59.228Z,8.68
2022-11-16T13:41:36.743Z,8.70
2022-11-16T13:44:06.193Z,8.69
2022-11-16T13:46:55.955Z,8.69
2022-11-16T13:49:33.646Z,8.69
2022-11-16T13:52:22.150Z,8.71
2022-11-16T13:54:55.460Z,8.69
2022-11-16T13:57:52.609Z,8.74
2022-11-16T14:00:26.140Z,8.76
2022-11-16T14:03:15.599Z,8.75
2022-11-16T14:05:44.639Z,8.72
2022-11-16T14:08:20.079Z,8.70
2022-11-16T14:10:52.224Z,8.67
2022-11-16T14:13:39.561Z,8.65
2022-11-16T14:16:15.162Z,8.66
2022-11-16T14:18:42.851Z,8.65
2022-11-16T14:21:33.921Z,8.63
2022-11-16T14:24:11.693Z,8.64
2022-11-16T14:27:01.251Z,8.61
2022-11-16T14:29:48.804Z,8.62
2022-11-16T14:32:28.807Z,8.64
2022-11-16T14:34:58.827Z,8.61
2022-11-16T14:37:25.246Z,8.62
2022-11-16T14:39:57.771Z,8.61
2022-11-16T14:42:37.978Z,8.61
2022-11-16T14:45:17.945Z,8.62
2022-11-16T14:47:48.107Z,8.58
2022-11-16T14:50:22.548Z,8.55
2022-11-16T14:52:52.950Z,8.55
2022-11-16T14:55:24.402Z,8.56
2022-11-16T14:58:20.654Z,8.54
2022-11-16T15:01:02.767Z,8.54
2022-11-16T15:03:37.156Z,8.56
2022-11-16T15:06:04.723Z,8.54
2022-11-16T15:08:37.358Z,8.50
2022-11-16T15:11:07.883Z,8.46
2022-11-16T15:13:35.932Z,8.43
2022-11-16T15:16:17.574Z,8.48
2022-11-16T15:19:01.161Z,8.46
2022-11-16T15:21:28.914Z,8.48
2022-11-16T15:26:43.357Z,8.44
2022-11-16T15:29:16.758Z,8.43
2022-11-16T15:31:44.238Z,8.44
2022-11-16T15:34:17.522Z,8.40
2022-11-16T15:36:44.277Z,8.42
2022-11-16T15:39:20.565Z,8.39
2022-11-16T15:41:47.572Z,8.37
2022-11-16T15:44:17.817Z,8.38
2022-11-16T15:46:48.184Z,8.38
2022-11-16T15:49:29.240Z,8.37
2022-11-16T15:51:59.700Z,8.35
2022-11-16T15:54:51.702Z,8.35
2022-11-16T15:57:19.849Z,8.35
2022-11-16T15:59:54.715Z,8.39
2022-11-16T16:02:25.055Z,8.38
2022-11-16T16:04:51.811Z,8.36
2022-11-16T16:07:49.294Z,8.35
2022-11-16T16:10:18.828Z,8.38
2022-11-16T16:12:54.282Z,8.37
2022-11-16T16:15:40.082Z,8.33
2022-11-16T16:18:36.710Z,8.36
2022-11-16T16:21:03.357Z,8.35
2022-11-16T16:23:29.853Z,8.36
2022-11-16T16:25:56.332Z,8.36
2022-11-16T16:28:22.834Z,8.35
2022-11-16T16:30:51.063Z,8.36
2022-11-16T16:33:19.872Z,8.38
2022-11-16T16:35:49.709Z,8.41
2022-11-16T16:38:16.368Z,8.42
2022-11-16T16:40:42.845Z,8.44
2022-11-16T16:43:09.343Z,8.45
2022-11-16T16:45:38.875Z,8.44
2022-11-16T16:48:06.274Z,8.43
2022-11-16T16:50:32.784Z,8.43
2022-11-16T16:52:59.281Z,8.41
2022-11-16T16:55:26.047Z,8.39
2022-11-16T16:57:56.464Z,8.42
2022-11-16T17:00:23.636Z,8.43
2022-11-16T17:02:50.656Z,8.42
2022-11-16T17:05:17.182Z,8.39
2022-11-16T17:07:43.673Z,8.36
2022-11-16T17:10:10.198Z,8.38
2022-11-16T17:12:36.764Z,8.36
2022-11-16T17:15:03.581Z,8.37
2022-11-16T17:17:31.435Z,8.39
2022-11-16T17:19:58.010Z,8.40
2022-11-16T17:22:24.522Z,8.38
2022-11-16T17:24:51.332Z,8.37
2022-11-16T17:27:17.813Z,8.35
2022-11-16T17:29:44.377Z,8.35
2022-11-16T17:32:10.878Z,8.35
2022-11-16T17:34:39.952Z,8.33
2022-11-16T17:37:06.921Z,8.31
2022-11-16T17:39:33.430Z,8.27
2022-11-16T17:41:59.941Z,8.29
2022-11-16T17:44:26.718Z,8.31
2022-11-16T17:46:53.258Z,8.31
2022-11-16T17:49:19.754Z,8.28
2022-11-16T17:51:46.327Z,8.27
2022-11-16T17:54:12.842Z,8.29
2022-11-16T17:56:39.358Z,8.30
2022-11-16T17:59:06.178Z,8.29
2022-11-16T18:01:33.199Z,8.29
2022-11-16T18:04:00.798Z,8.31
2022-11-16T18:06:27.317Z,8.35
2022-11-16T18:08:54.246Z,8.32
2022-11-16T18:11:26.152Z,8.31
2022-11-16T18:13:56.015Z,8.31
2022-11-16T18:16:24.948Z,8.31
2022-11-16T18:19:05.846Z,8.31
2022-11-16T18:21:37.931Z,8.33
2022-11-16T18:24:04.558Z,8.31
2022-11-16T18:26:31.048Z,8.28
2022-11-16T18:28:57.574Z,8.30
2022-11-16T18:31:24.960Z,8.29
2022-11-16T18:33:52.136Z,8.27
2022-11-16T18:36:20.317Z,8.31
2022-11-16T18:38:47.002Z,8.28
2022-11-16T18:41:13.442Z,8.30
2022-11-16T18:43:50.257Z,8.29
2022-11-16T18:46:21.773Z,8.27
2022-11-16T18:48:48.358Z,8.30
2022-11-16T18:51:16.840Z,8.31
2022-11-16T18:53:43.871Z,8.32
2022-11-16T18:56:11.882Z,8.31
2022-11-16T18:58:54.606Z,8.30
2022-11-16T19:01:24.423Z,8.29
2022-11-16T19:03:52.223Z,8.28
2022-11-16T19:06:19.598Z,8.29
2022-11-16T19:08:53.646Z,8.29
2022-11-16T19:11:23.326Z,8.29
2022-11-16T19:13:57.499Z,8.29
2022-11-16T19:16:25.089Z,8.29
2022-11-16T19:18:52.145Z,8.30
2022-11-16T19:21:19.065Z,8.31
2022-11-16T19:23:47.789Z,8.31
2022-11-16T19:26:15.979Z,8.29
2022-11-16T19:28:44.819Z,8.28
2022-11-16T19:31:17.262Z,8.27
2022-11-16T19:33:44.584Z,8.25
2022-11-16T19:36:18.904Z,8.24
2022-11-16T19:38:46.949Z,8.22
2022-11-16T19:41:15.896Z,8.25
2022-11-16T19:43:42.654Z,8.24
2022-11-16T19:46:16.611Z,8.23
2022-11-16T19:48:44.760Z,8.25
2022-11-16T19:51:16.568Z,8.25
2022-11-16T19:53:43.250Z,8.25
2022-11-16T19:56:14.949Z,8.25
2022-11-16T19:58:42.285Z,8.27
2022-11-16T20:01:17.017Z,8.26
2022-11-16T20:03:44.423Z,8.31
2022-11-16T20:06:22.140Z,8.27
2022-11-16T20:08:54.029Z,8.25
2022-11-16T20:11:25.453Z,8.21
2022-11-16T20:13:53.714Z,8.20
2022-11-16T20:16:22.890Z,8.18
2022-11-16T20:18:50.338Z,8.23
2022-11-16T20:21:22.137Z,8.23
2022-11-16T20:23:49.589Z,8.23
2022-11-16T20:26:16.099Z,8.19
2022-11-16T20:28:43.481Z,8.18
2022-11-16T20:31:15.239Z,8.16
2022-11-16T20:33:43.073Z,8.16
2022-11-16T20:36:11.403Z,8.14
2022-11-16T20:38:39.418Z,8.13
2022-11-16T20:41:14.842Z,8.10
2022-11-16T20:43:42.690Z,8.08
2022-11-16T20:46:13.974Z,8.06
2022-11-16T20:48:42.558Z,8.05
2022-11-16T20:51:12.149Z,8.04
2022-11-16T20:53:38.987Z,8.04
2022-11-16T20:56:07.560Z,8.07
2022-11-16T20:58:35.088Z,8.04
2022-11-16T21:01:05.117Z,8.01
2022-11-16T21:03:32.255Z,7.99
2022-11-16T21:05:58.931Z,7.96
2022-11-16T21:08:26.637Z,7.93
2022-11-16T21:10:53.804Z,7.92
2022-11-16T21:13:40.147Z,7.90
2022-11-16T21:16:10.851Z,7.89
2022-11-16T21:18:38.297Z,7.89
2022-11-16T21:21:06.276Z,7.91
2022-11-16T21:23:34.974Z,7.89
2022-11-16T21:26:03.586Z,7.90
2022-11-16T21:28:30.433Z,7.91
2022-11-16T21:31:05.734Z,7.93
2022-11-16T21:33:32.805Z,7.97
2022-11-16T21:36:14.222Z,7.99
2022-11-16T21:38:41.140Z,8.02
2022-11-16T21:41:09.638Z,7.99
2022-11-16T21:43:37.212Z,8.00
2022-11-16T21:46:10.038Z,7.97
2022-11-16T21:48:37.321Z,7.93
2022-11-16T21:51:12.553Z,7.93
2022-11-16T21:53:39.559Z,7.91
2022-11-16T21:56:12.506Z,7.91
2022-11-16T21:58:40.149Z,7.92
2022-11-16T22:01:08.958Z,7.91
2022-11-16T22:03:35.724Z,7.92
2022-11-16T22:06:23.301Z,7.90
2022-11-16T22:08:50.374Z,7.90
2022-11-16T22:11:17.604Z,7.91
2022-11-16T22:13:44.372Z,7.95
2022-11-16T22:16:15.470Z,7.92
2022-11-16T22:18:42.489Z,7.95
2022-11-16T22:21:09.777Z,8.00
2022-11-16T22:23:37.656Z,7.99
2022-11-16T22:26:07.498Z,7.92
2022-11-16T22:28:35.392Z,7.85
2022-11-16T22:31:15.513Z,7.82
2022-11-16T22:33:42.508Z,7.83
2022-11-16T22:36:10.351Z,7.85
2022-11-16T22:38:37.346Z,7.83
2022-11-16T22:41:04.237Z,7.84
2022-11-16T22:43:31.293Z,7.84
2022-11-16T22:46:04.286Z,7.81
2022-11-16T22:48:41.120Z,7.81
2022-11-16T22:51:20.657Z,7.82
2022-11-16T22:53:47.305Z,7.85
2022-11-16T22:56:14.132Z,7.87
2022-11-16T22:58:40.649Z,7.84
2022-11-16T23:01:09.204Z,7.82
2022-11-16T23:03:36.779Z,7.78
2022-11-16T23:06:04.563Z,7.74
2022-11-16T23:08:32.134Z,7.70
2022-11-16T23:11:22.906Z,7.65
2022-11-16T23:14:08.687Z,7.62
2022-11-16T23:16:35.904Z,7.62
2022-11-16T23:19:02.454Z,7.65
2022-11-16T23:21:47.804Z,7.69
2022-11-16T23:24:34.097Z,7.67
2022-11-16T23:27:22.637Z,7.64
2022-11-16T23:29:49.552Z,7.61
2022-11-16T23:32:16.132Z,7.59
2022-11-16T23:34:42.615Z,7.57
2022-11-16T23:37:09.141Z,7.54
2022-11-16T23:39:35.652Z,7.54
2022-11-16T23:42:20.932Z,7.49
2022-11-16T23:44:47.490Z,7.48
2022-11-16T23:47:14.074Z,7.46
2022-11-16T23:49:40.549Z,7.45
2022-11-16T23:52:07.597Z,7.43
2022-11-16T23:54:34.147Z,7.42
2022-11-16T23:57:00.650Z,7.40
2022-11-16T23:59:27.310Z,7.40
